Terminal Aerodrome Forecast
Issued by NWS

Home | Current Version | Previous Version | Text Only | Print | Product List | Glossary On
Versions: 1 2 3 4 5 6 7 8 9 10 11 12 13 14 15
081
FTUS42 TJSJ 290520
TAFJBQ
TAF
TJBQ 290520Z 2906/3006 06004KT P6SM FEW040
     FM291300 08010KT P6SM FEW030 SCT060
     FM292300 11008KT P6SM FEW060
      AMD NOT SKED TIL 291100=

USA.gov is the U.S. government's official web portal to all federal, state and local government web resources and services.